Time;durP1;ratioP1;P1;durP2;ratioP2;P2;SDS_P1;SDS_P2;PMS_P1;PMS_P2;Temp;Humidity;BMP_temperature;BMP_pressure;BME280_temperature;BME280_humidity;BME280_pressure;Samples;Min_cycle;Max_cycle;Signal;HPM_P1;HPM_P2
2023/10/17 00:01:19;;;;;;;5.13;4.57;;;;;;;63.19;100.00;60434.72;5110336;27;20296;-71
2023/10/17 00:03:46;;;;;;;21.23;17.57;;;;;;;;;;5110408;27;20233;-70
2023/10/17 00:06:16;;;;;;;5.40;5.03;;;;;;;;;;5112200;27;20276;-70
2023/10/17 00:08:50;;;;;;;6.30;4.97;;;;;;;-148.82;100.00;60434.72;5117056;27;20197;-69
2023/10/17 00:11:20;;;;;;;5.80;4.77;;;;;;;-148.82;100.00;60434.72;5110407;27;20196;-70
2023/10/17 00:14:02;;;;;;;4.70;4.40;;;;;;;-148.82;100.00;60434.72;5113862;27;20430;-69
2023/10/17 00:16:33;;;;;;;5.07;4.67;;;;;;;-148.82;100.00;60434.72;5108320;27;20205;-69
2023/10/17 00:19:05;;;;;;;4.90;4.50;;;;;;;-148.82;100.00;60434.72;5112970;27;20206;-70
2023/10/17 00:21:34;;;;;;;4.77;4.30;;;;;;;-148.82;100.00;60434.72;5111047;27;20233;-70
2023/10/17 00:24:08;;;;;;;4.67;4.37;;;;;;;41.96;100.00;60434.72;5113461;27;20313;-70
2023/10/17 00:26:37;;;;;;;5.20;4.80;;;;;;;;;;5111717;27;20215;-69
2023/10/17 00:29:06;;;;;;;5.40;4.90;;;;;;;-148.82;100.00;60434.72;5111878;27;20398;-70
2023/10/17 00:31:35;;;;;;;5.53;5.03;;;;;;;;;;5110635;27;20367;-68
2023/10/17 00:34:12;;;;;;;5.17;4.67;;;;;;;-148.82;100.00;60434.72;5113319;27;20274;-69
2023/10/17 00:36:48;;;;;;;5.67;5.27;;;;;;;-148.82;100.00;60434.72;5110922;27;20691;-69
2023/10/17 00:39:21;;;;;;;5.70;5.20;;;;;;;;;;5113209;27;20286;-69
2023/10/17 00:41:52;;;;;;;7.40;5.37;;;;;;;-148.82;100.00;60434.72;5109177;27;20686;-69
2023/10/17 00:44:30;;;;;;;5.93;5.43;;;;;;;-148.82;100.00;60434.72;5111508;27;20754;-72
2023/10/17 00:46:58;;;;;;;5.40;5.00;;;;;;;;;;5109038;27;20197;-71
2023/10/17 00:49:26;;;;;;;6.80;5.77;;;;;;;-148.82;100.00;60434.72;5110514;27;20229;-69
2023/10/17 00:51:56;;;;;;;4.97;4.60;;;;;;;-148.82;100.00;60434.72;5117717;27;20277;-69
2023/10/17 00:54:25;;;;;;;5.30;4.90;;;;;;;-148.82;100.00;60434.72;5113627;27;20221;-70
2023/10/17 00:56:54;;;;;;;5.20;4.70;;;;;;;;;;5115956;27;20208;-69
2023/10/17 00:59:25;;;;;;;5.20;4.70;;;;;;;-148.82;100.00;60434.72;5109658;27;20218;-68
2023/10/17 01:01:55;;;;;;;5.63;5.20;;;;;;;-148.82;100.00;60434.72;5116665;27;21491;-71
2023/10/17 01:04:24;;;;;;;5.27;4.87;;;;;;;;;;5115915;27;20784;-70
2023/10/17 01:06:54;;;;;;;4.90;4.50;;;;;;;;;;5117348;27;20229;-70
2023/10/17 01:09:25;;;;;;;5.30;4.90;;;;;;;-148.82;100.00;60434.72;5111521;27;20657;-72
2023/10/17 01:11:55;;;;;;;5.73;4.63;;;;;;;-148.82;100.00;60434.72;5116171;27;20209;-69
2023/10/17 01:14:23;;;;;;;5.93;4.40;;;;;;;;;;5114877;27;20263;-72
2023/10/17 01:16:52;;;;;;;4.53;4.23;;;;;;;-148.82;100.00;60434.72;5114327;27;20212;-70
2023/10/17 01:19:21;;;;;;;5.03;4.33;;;;;;;-148.82;100.00;60434.72;5112000;27;20194;-68
2023/10/17 01:21:49;;;;;;;5.60;3.93;;;;;;;;;;5118319;27;20358;-72
2023/10/17 01:24:18;;;;;;;4.77;4.37;;;;;;;-148.82;100.00;60434.72;5109966;27;20317;-69
2023/10/17 01:26:46;;;;;;;5.00;4.63;;;;;;;;;;5115677;27;20313;-70
2023/10/17 01:29:14;;;;;;;4.80;4.40;;;;;;;-148.82;100.00;60434.72;5113044;27;20739;-71
2023/10/17 01:31:43;;;;;;;4.80;4.47;;;;;;;-148.82;100.00;60434.72;5117077;27;20283;-70
2023/10/17 01:34:12;;;;;;;8.20;4.43;;;;;;;-148.82;100.00;60434.72;5116450;27;20272;-70
2023/10/17 01:36:40;;;;;;;5.03;4.53;;;;;;;-148.82;100.00;60434.72;5114720;27;20197;-69
2023/10/17 01:39:09;;;;;;;6.17;4.77;;;;;;;-148.82;100.00;60434.72;5116729;27;20201;-70
2023/10/17 01:41:46;;;;;;;4.80;4.40;;;;;;;-148.82;100.00;60434.72;5115112;27;20220;-72
2023/10/17 01:44:14;;;;;;;4.77;4.37;;;;;;;-148.82;100.00;60434.72;5117131;27;21013;-70
2023/10/17 01:46:43;;;;;;;5.20;4.80;;;;;;;-148.82;100.00;60434.72;5111946;27;20199;-69
2023/10/17 01:49:12;;;;;;;5.47;5.03;;;;;;;-148.82;100.00;60434.72;5113445;27;20583;-70
2023/10/17 01:51:42;;;;;;;5.30;4.90;;;;;;;;;;5116604;27;20207;-69
2023/10/17 01:54:12;;;;;;;4.27;4.07;;;;;;;-148.82;100.00;60434.72;5113558;27;20233;-70
2023/10/17 01:56:47;;;;;;;5.57;5.10;;;;;;;-148.82;100.00;60434.72;5120107;27;20207;-71
2023/10/17 01:59:17;;;;;;;4.83;4.50;;;;;;;-148.82;100.00;60434.72;5109786;27;20291;-70
2023/10/17 02:01:45;;;;;;;5.37;5.07;;;;;;;-148.82;100.00;60434.72;5110796;27;20232;-69
2023/10/17 02:04:14;;;;;;;5.93;4.73;;;;;;;-148.82;100.00;60434.72;5111204;27;20299;-69
2023/10/17 02:06:43;;;;;;;4.87;4.40;;;;;;;-148.82;100.00;60434.72;5113200;27;20295;-69
2023/10/17 02:09:23;;;;;;;3.93;3.63;;;;;;;-148.82;100.00;60434.72;5113493;27;20221;-71
2023/10/17 02:11:54;;;;;;;5.50;4.73;;;;;;;-148.82;100.00;60434.72;5109695;27;20205;-71
2023/10/17 02:14:23;;;;;;;5.07;4.67;;;;;;;-148.82;100.00;60434.72;5113080;27;20478;-70
2023/10/17 02:16:51;;;;;;;5.20;4.70;;;;;;;-148.82;100.00;60434.72;5109716;27;20206;-72
2023/10/17 02:19:19;;;;;;;5.10;4.57;;;;;;;-148.82;100.00;60434.72;5113460;27;20289;-71
2023/10/17 02:21:50;;;;;;;5.10;4.73;;;;;;;-148.82;100.00;60434.72;5115147;27;20671;-70
2023/10/17 02:24:20;;;;;;;5.77;5.37;;;;;;;;;;5109690;27;21020;-71
2023/10/17 02:26:55;;;;;;;5.17;4.67;;;;;;;;;;5115041;27;20235;-69
2023/10/17 02:29:26;;;;;;;5.27;4.83;;;;;;;-148.82;100.00;60434.72;5111972;27;20246;-70
2023/10/17 02:31:54;;;;;;;5.07;4.60;;;;;;;-148.82;100.00;60434.72;5114785;27;20712;-70
2023/10/17 02:34:23;;;;;;;5.37;5.03;;;;;;;-148.82;100.00;60434.72;5109281;27;20232;-73
2023/10/17 02:36:52;;;;;;;4.97;4.57;;;;;;;-148.82;100.00;60434.72;5113112;27;20201;-70
2023/10/17 02:39:20;;;;;;;5.10;4.70;;;;;;;-148.82;100.00;60434.72;5110476;27;20228;-70
2023/10/17 02:41:57;;;;;;;5.50;4.33;;;;;;;-148.82;100.00;60434.72;5111417;27;20297;-73
2023/10/17 02:44:27;;;;;;;5.23;4.73;;;;;;;-148.82;100.00;60434.72;5111811;27;20252;-70
2023/10/17 02:46:58;;;;;;;6.77;5.50;;;;;;;-148.82;100.00;60434.72;5112802;27;20212;-70
2023/10/17 02:49:36;;;;;;;4.90;4.60;;;;;;;-148.82;100.00;60434.72;5112462;27;20253;-72
2023/10/17 02:52:04;;;;;;;5.87;4.57;;;;;;;-148.82;100.00;60434.72;5117698;27;20692;-69
2023/10/17 02:54:52;;;;;;;5.40;5.00;;;;;;;-148.82;100.00;60434.72;5114394;27;20255;-69
2023/10/17 02:57:20;;;;;;;5.27;4.77;;;;;;;;;;5112320;27;20205;-72
2023/10/17 02:59:51;;;;;;;5.47;5.07;;;;;;;-148.82;100.00;60434.72;5110835;27;20217;-72
2023/10/17 03:02:20;;;;;;;6.47;5.93;;;;;;;-148.82;100.00;60434.72;5110897;27;20193;-74
2023/10/17 03:04:48;;;;;;;5.03;4.63;;;;;;;-148.82;100.00;60434.72;5112354;27;20301;-72
2023/10/17 03:07:16;;;;;;;5.00;4.60;;;;;;;-148.82;100.00;60434.72;5115622;27;20288;-69
2023/10/17 03:09:44;;;;;;;5.60;5.20;;;;;;;-148.82;100.00;60434.72;5115119;27;20231;-70
2023/10/17 03:12:19;;;;;;;5.87;5.30;;;;;;;-148.82;100.00;60434.72;5111629;27;20651;-72
2023/10/17 03:17:34;;;;;;;6.70;5.47;;;;;;;-148.82;100.00;60434.72;5112479;27;20209;-70
2023/10/17 03:20:00;;;;;;;4.70;4.30;;;;;;;-148.82;100.00;60434.72;5114721;27;20223;-71
2023/10/17 03:22:28;;;;;;;5.63;4.80;;;;;;;-148.82;100.00;60434.72;5113347;27;20851;-72
2023/10/17 03:25:02;;;;;;;5.57;4.87;;;;;;;-148.82;100.00;60434.72;5112948;27;20339;-70
2023/10/17 03:27:36;;;;;;;4.63;4.33;;;;;;;-148.82;100.00;60434.72;5113243;27;20610;-74
2023/10/17 03:30:06;;;;;;;4.50;4.07;;;;;;;-148.82;100.00;60434.72;5112556;27;20200;-70
2023/10/17 03:32:43;;;;;;;5.83;5.30;;;;;;;-148.82;100.00;60434.72;5114320;27;20196;-70
2023/10/17 03:35:20;;;;;;;5.37;5.00;;;;;;;-148.82;100.00;60434.72;5115475;27;20212;-70
2023/10/17 03:37:48;;;;;;;6.00;5.27;;;;;;;-148.82;100.00;60434.72;5111990;27;20794;-71
2023/10/17 03:40:19;;;;;;;4.57;4.27;;;;;;;-148.82;100.00;60434.72;5115165;27;20215;-69
2023/10/17 03:42:53;;;;;;;5.27;4.87;;;;;;;-148.82;100.00;60434.72;5117011;27;20212;-71
2023/10/17 03:45:26;;;;;;;5.13;4.73;;;;;;;-148.82;100.00;60434.72;5107834;27;20716;-72
2023/10/17 03:47:57;;;;;;;5.23;4.70;;;;;;;;;;5112173;27;20205;-73
2023/10/17 03:50:41;;;;;;;5.57;5.00;;;;;;;-148.82;100.00;60434.72;5114043;27;20208;-71
2023/10/17 03:53:14;;;;;;;6.20;5.60;;;;;;;-148.82;100.00;60434.72;5112988;27;20208;-71
2023/10/17 03:55:43;;;;;;;6.57;5.97;;;;;;;-148.82;100.00;60434.72;5109141;27;21076;-72
2023/10/17 03:58:19;;;;;;;6.43;5.93;;;;;;;-148.82;100.00;60434.72;5110621;27;20228;-72
2023/10/17 04:00:47;;;;;;;5.80;5.30;;;;;;;-148.82;100.00;60434.72;5108944;27;20205;-70
2023/10/17 04:03:21;;;;;;;6.57;5.97;;;;;;;-148.82;100.00;60434.72;5112068;27;20197;-70
2023/10/17 04:05:51;;;;;;;5.80;5.37;;;;;;;-148.82;100.00;60434.72;5109506;27;20802;-74
2023/10/17 04:08:25;;;;;;;5.80;5.40;;;;;;;;;;5108843;27;20290;-72
2023/10/17 04:11:08;;;;;;;5.83;5.33;;;;;;;-148.82;100.00;60434.72;5112106;27;20262;-71
2023/10/17 04:13:37;;;;;;;5.83;5.40;;;;;;;-148.82;100.00;60434.72;5110514;27;20791;-71
2023/10/17 04:16:10;;;;;;;4.97;4.63;;;;;;;;;;5110695;27;20326;-72
2023/10/17 04:18:39;;;;;;;5.50;5.00;;;;;;;-148.82;100.00;60434.72;5108390;27;20205;-73
2023/10/17 04:21:17;;;;;;;7.33;6.60;;;;;;;-148.82;100.00;60434.72;5114689;27;20220;-72
2023/10/17 04:23:49;;;;;;;5.23;4.87;;;;;;;-148.82;100.00;60434.72;5110646;27;20527;-73
2023/10/17 04:26:19;;;;;;;6.30;5.30;;;;;;;-148.82;100.00;60434.72;5117566;27;20205;-70
2023/10/17 04:28:49;;;;;;;5.13;4.73;;;;;;;;;;5118038;27;20489;-72
2023/10/17 04:31:25;;;;;;;6.20;5.70;;;;;;;-148.82;100.00;60434.72;5119561;27;20621;-71
2023/10/17 04:34:06;;;;;;;5.37;4.97;;;;;;;-148.82;100.00;60434.72;5115054;27;20466;-72
2023/10/17 04:36:37;;;;;;;6.20;5.70;;;;;;;-148.82;100.00;60434.72;5121572;27;20264;-70
2023/10/17 04:39:18;;;;;;;5.50;5.10;;;;;;;-148.82;100.00;60434.72;5119618;27;20196;-73
2023/10/17 04:42:05;;;;;;;5.43;5.03;;;;;;;;;;5118875;27;20212;-70
2023/10/17 04:44:34;;;;;;;5.87;5.40;;;;;;;-148.82;100.00;60434.72;5111354;27;20221;-68
2023/10/17 04:47:25;;;;;;;6.57;6.07;;;;;;;-148.82;100.00;60434.72;5118630;27;20674;-69
2023/10/17 04:49:54;;;;;;;5.43;5.03;;;;;;;;;;5115672;27;20201;-71
2023/10/17 04:52:28;;;;;;;5.70;5.23;;;;;;;-148.82;100.00;60434.72;5119258;27;20201;-71
2023/10/17 04:55:01;;;;;;;6.00;5.40;;;;;;;-148.82;100.00;60434.72;5120205;27;20319;-69
2023/10/17 05:00:15;;;;;;;5.40;5.00;;;;;;;-148.82;100.00;60434.72;5116623;27;20575;-70
2023/10/17 05:02:54;;;;;;;6.07;5.57;;;;;;;-148.82;100.00;60434.72;5114770;27;20282;-71
2023/10/17 05:05:45;;;;;;;6.10;5.70;;;;;;;-148.82;100.00;60434.72;5115868;27;20295;-73
2023/10/17 05:08:18;;;;;;;6.23;5.50;;;;;;;;;;5115343;27;20760;-68
2023/10/17 06:17:53;;;;;;;6.20;5.67;;;;;;;-148.82;100.00;60434.72;5112827;27;20220;-72
2023/10/17 06:20:44;;;;;;;7.10;5.73;;;;;;;-148.82;100.00;60434.72;5116056;27;20209;-72
2023/10/17 06:23:23;;;;;;;5.50;5.10;;;;;;;;;;5110952;27;20660;-69
2023/10/17 06:26:07;;;;;;;5.77;5.37;;;;;;;-148.82;100.00;60434.72;5112905;27;20247;-71
2023/10/17 06:28:35;;;;;;;6.00;5.60;;;;;;;;;;5118813;27;20371;-69
2023/10/17 06:34:04;;;;;;;6.10;5.60;;;;;;;-148.82;100.00;60434.72;5077215;27;20447;-72
2023/10/17 06:36:31;;;;;;;6.13;5.63;;;;;;;-148.82;100.00;60434.72;5109880;27;20512;-70
2023/10/17 06:38:58;;;;;;;10.80;6.00;;;;;;;;;;5111724;27;20202;-72
2023/10/17 06:41:27;;;;;;;7.37;6.60;;;;;;;;;;5115814;27;20652;-69
2023/10/17 06:43:58;;;;;;;7.43;6.77;;;;;;;;;;5111925;27;20228;-70
2023/10/17 06:46:30;;;;;;;6.70;6.10;;;;;;;;;;5109511;27;20275;-69
2023/10/17 06:49:03;;;;;;;6.63;5.97;;;;;;;;;;5109966;27;20236;-68
2023/10/17 06:51:35;;;;;;;7.37;6.00;;;;;;;-148.82;100.00;60434.72;5113277;27;20262;-71
2023/10/17 06:54:07;;;;;;;9.97;8.97;;;;;;;-148.82;100.00;60434.72;5113970;27;20221;-71
2023/10/17 06:56:41;;;;;;;6.73;6.13;;;;;;;-148.82;100.00;60434.72;5114994;27;20844;-70
2023/10/17 06:59:33;;;;;;;6.83;6.17;;;;;;;-148.82;100.00;60434.72;5111105;27;20197;-72
2023/10/17 07:02:10;;;;;;;7.07;6.43;;;;;;;-148.82;100.00;60434.72;5112651;27;20814;-71
2023/10/17 07:04:40;;;;;;;6.97;6.37;;;;;;;-148.82;100.00;60434.72;5112296;27;20235;-71
2023/10/17 07:07:09;;;;;;;8.67;7.07;;;;;;;-148.82;100.00;60434.72;5116486;27;20201;-73
2023/10/17 07:09:39;;;;;;;7.57;6.90;;;;;;;-148.82;100.00;60434.72;5114096;27;20197;-68
2023/10/17 07:12:13;;;;;;;6.50;6.00;;;;;;;-148.82;100.00;60434.72;5112711;27;20571;-70
2023/10/17 07:14:48;;;;;;;8.40;6.37;;;;;;;-148.82;100.00;60434.72;5110978;27;20215;-74
2023/10/17 07:17:27;;;;;;;6.40;5.87;;;;;;;-148.82;100.00;60434.72;5117673;27;20777;-72
2023/10/17 07:19:59;;;;;;;6.60;6.00;;;;;;;-148.82;100.00;60434.72;5111931;27;20300;-70
2023/10/17 07:22:36;;;;;;;5.97;5.57;;;;;;;;;;5113503;27;20225;-71
2023/10/17 07:25:16;;;;;;;6.13;5.60;;;;;;;63.19;100.00;60434.72;5111366;27;20232;-71
2023/10/17 07:27:44;;;;;;;5.87;5.37;;;;;;;;;;5111175;27;20209;-70
2023/10/17 07:30:24;;;;;;;8.00;5.73;;;;;;;-148.82;100.00;60434.72;5113876;27;20229;-70
2023/10/17 07:32:54;;;;;;;5.90;5.37;;;;;;;-148.82;100.00;60434.72;5113926;27;20201;-68
2023/10/17 07:35:25;;;;;;;5.90;5.37;;;;;;;-148.82;100.00;60434.72;5114631;27;20285;-69
2023/10/17 07:37:57;;;;;;;6.23;5.83;;;;;;;-148.82;100.00;60434.72;5115542;27;20591;-70
2023/10/17 07:40:33;;;;;;;6.67;6.03;;;;;;;-148.82;100.00;60434.72;5113970;27;20200;-70
2023/10/17 07:43:07;;;;;;;5.97;5.37;;;;;;;-148.82;100.00;60434.72;5110432;27;20208;-73
2023/10/17 07:45:39;;;;;;;7.07;5.57;;;;;;;-148.82;100.00;60434.72;5114555;27;20788;-69
2023/10/17 07:48:21;;;;;;;6.90;6.30;;;;;;;-148.82;100.00;60434.72;5110277;27;20300;-72
2023/10/17 07:50:51;;;;;;;6.63;6.03;;;;;;;-148.82;100.00;60434.72;5113781;27;20716;-73
2023/10/17 07:53:20;;;;;;;6.60;6.00;;;;;;;;;;5113089;27;21477;-71
2023/10/17 07:55:49;;;;;;;6.33;5.83;;;;;;;41.96;100.00;60434.72;5111016;27;20759;-70
2023/10/17 07:58:35;;;;;;;8.13;6.50;;;;;;;63.19;100.00;60434.72;5112643;27;20249;-70
2023/10/17 08:01:07;;;;;;;6.40;5.77;;;;;;;105.65;100.00;60434.72;5120899;27;20657;-70
2023/10/17 08:03:39;;;;;;;7.30;6.70;;;;;;;;;;5121037;27;20659;-73
2023/10/17 08:06:08;;;;;;;5.30;4.93;;;;;;;;;;5117424;27;20207;-71
2023/10/17 08:08:42;;;;;;;6.13;5.63;;;;;;;;;;5119495;27;20196;-71
2023/10/17 08:11:26;;;;;;;6.60;5.77;;;;;;;105.65;100.00;60434.72;5118177;27;20762;-71
2023/10/17 08:13:55;;;;;;;6.70;6.23;;;;;;;105.65;100.00;60434.72;5115466;27;20219;-69
2023/10/17 08:16:29;;;;;;;5.53;5.03;;;;;;;105.65;100.00;60434.72;5111002;27;20256;-72
2023/10/17 08:19:12;;;;;;;6.70;6.10;;;;;;;;;;5120248;27;20237;-68
2023/10/17 08:21:49;;;;;;;6.73;6.23;;;;;;;-148.82;100.00;60434.72;5116145;27;20237;-70
2023/10/17 08:24:25;;;;;;;7.17;6.50;;;;;;;63.19;100.00;60434.72;5118868;27;20227;-71
2023/10/17 08:29:37;;;;;;;6.60;6.00;;;;;;;41.96;100.00;60434.72;5118216;27;20289;-71
2023/10/17 08:32:20;;;;;;;5.97;5.53;;;;;;;-148.82;100.00;60434.72;5118520;27;20208;-70
2023/10/17 08:34:49;;;;;;;7.27;6.67;;;;;;;41.96;100.00;60434.72;5115337;27;20228;-69
2023/10/17 08:37:19;;;;;;;7.07;6.47;;;;;;;-148.82;100.00;60434.72;5117667;27;20733;-72
2023/10/17 08:39:52;;;;;;;6.07;5.57;;;;;;;-148.82;100.00;60434.72;5118245;27;20225;-67
2023/10/17 08:42:30;;;;;;;5.30;4.80;;;;;;;41.96;100.00;60434.72;5113904;27;20233;-72
2023/10/17 08:44:59;;;;;;;5.10;4.43;;;;;;;-148.82;100.00;60434.72;5117402;27;20225;-69
2023/10/17 08:47:30;;;;;;;4.77;4.37;;;;;;;-148.82;100.00;60434.72;5119132;27;20208;-69
2023/10/17 08:50:02;;;;;;;6.60;5.10;;;;;;;-148.82;100.00;60434.72;5115899;27;20304;-68
2023/10/17 08:52:35;;;;;;;4.87;4.47;;;;;;;-148.82;100.00;60434.72;5120590;27;20275;-69
2023/10/17 08:55:04;;;;;;;4.93;4.43;;;;;;;41.96;100.00;60434.72;5111524;27;20229;-73
2023/10/17 08:57:32;;;;;;;6.27;5.33;;;;;;;-148.82;100.00;60434.72;5114270;27;20605;-68
2023/10/17 09:00:22;;;;;;;5.43;4.97;;;;;;;-148.82;100.00;60434.72;5114987;27;21754;-72
2023/10/17 09:03:01;;;;;;;5.07;4.50;;;;;;;-148.82;100.00;60434.72;5115166;27;20201;-69
2023/10/17 09:05:29;;;;;;;5.50;4.73;;;;;;;-148.82;100.00;60434.72;5118278;27;20311;-68
2023/10/17 09:07:58;;;;;;;5.73;5.23;;;;;;;-148.82;100.00;60434.72;5117274;27;20214;-68
2023/10/17 09:10:36;;;;;;;4.47;4.17;;;;;;;;;;5113055;27;20215;-70
2023/10/17 09:15:55;;;;;;;4.60;4.23;;;;;;;-148.82;100.00;60434.72;5115318;27;20256;-71
2023/10/17 09:18:27;;;;;;;4.50;4.10;;;;;;;;;;5113964;27;20351;-71
2023/10/17 09:20:56;;;;;;;4.40;4.03;;;;;;;-148.82;100.00;60434.72;5114951;27;20510;-71
2023/10/17 09:23:26;;;;;;;5.37;4.53;;;;;;;-148.82;100.00;60434.72;5116412;27;20197;-69
2023/10/17 09:25:55;;;;;;;4.70;4.30;;;;;;;-148.82;100.00;60434.72;5116034;27;20362;-70
2023/10/17 09:28:24;;;;;;;4.43;4.03;;;;;;;-148.82;100.00;60434.72;5117106;27;20687;-69
2023/10/17 09:30:58;;;;;;;5.37;4.20;;;;;;;;;;5112990;27;20371;-70
2023/10/17 09:33:31;;;;;;;5.13;4.70;;;;;;;-148.82;100.00;60434.72;5119065;27;20223;-71
2023/10/17 09:36:03;;;;;;;8.33;4.23;;;;;;;-148.82;100.00;60434.72;5117097;27;20723;-72
2023/10/17 09:38:32;;;;;;;4.30;4.00;;;;;;;-148.82;100.00;60434.72;5114537;27;20301;-70
2023/10/17 09:41:00;;;;;;;4.33;4.03;;;;;;;-148.82;100.00;60434.72;5109777;27;20252;-73
2023/10/17 09:43:42;;;;;;;4.10;3.80;;;;;;;-148.82;100.00;60434.72;5118114;27;20279;-71
2023/10/17 09:46:12;;;;;;;4.53;4.10;;;;;;;-148.82;100.00;60434.72;5115179;27;22187;-72
2023/10/17 09:48:43;;;;;;;5.23;4.07;;;;;;;-148.82;100.00;60434.72;5119507;27;20201;-70
2023/10/17 09:51:20;;;;;;;4.90;4.50;;;;;;;-148.82;100.00;60434.72;5114027;27;20289;-71
2023/10/17 09:53:53;;;;;;;4.60;4.30;;;;;;;-148.82;100.00;60434.72;5119122;27;20204;-71
2023/10/17 09:56:26;;;;;;;4.40;4.10;;;;;;;-148.82;100.00;60434.72;5118170;27;20733;-72
2023/10/17 09:58:58;;;;;;;4.70;3.80;;;;;;;-148.82;100.00;60434.72;5114971;27;20227;-71
2023/10/17 10:01:26;;;;;;;3.90;3.70;;;;;;;;;;5116257;27;20201;-71
2023/10/17 10:03:58;;;;;;;4.00;3.70;;;;;;;;;;5111766;27;20626;-71
2023/10/17 10:06:27;;;;;;;4.27;3.87;;;;;;;-148.82;100.00;60434.72;5116592;27;20244;-69
2023/10/17 10:08:56;;;;;;;4.20;3.70;;;;;;;-148.82;100.00;60434.72;5114375;27;20242;-70
2023/10/17 10:11:53;;;;;;;3.67;3.47;;;;;;;-148.82;100.00;60434.72;5114326;27;20209;-72
2023/10/17 10:14:37;;;;;;;4.93;4.53;;;;;;;-148.82;100.00;60434.72;5110248;27;20233;-71
2023/10/17 10:17:05;;;;;;;4.27;3.87;;;;;;;-148.82;100.00;60434.72;5115215;27;20219;-68
2023/10/17 10:19:53;;;;;;;4.40;4.00;;;;;;;;;;5115983;27;20285;-69
2023/10/17 10:22:23;;;;;;;4.80;3.83;;;;;;;-148.82;100.00;60434.72;5115980;27;20262;-69
2023/10/17 10:25:05;;;;;;;4.40;4.10;;;;;;;-148.82;100.00;60434.72;5112958;27;20640;-70
2023/10/17 10:27:33;;;;;;;4.27;3.97;;;;;;;;;;5116749;27;20197;-71
2023/10/17 10:30:20;;;;;;;4.20;3.80;;;;;;;;;;5111000;27;20205;-69
2023/10/17 10:32:50;;;;;;;4.30;3.90;;;;;;;-148.82;100.00;60434.72;5118317;27;20690;-69
2023/10/17 10:35:17;;;;;;;3.77;3.57;;;;;;;-148.82;100.00;60434.72;5111585;27;20346;-70
2023/10/17 10:37:54;;;;;;;4.07;3.77;;;;;;;-148.82;100.00;60434.72;5116706;27;20307;-69
2023/10/17 10:40:26;;;;;;;4.13;3.83;;;;;;;-148.82;100.00;60434.72;5114221;27;20194;-69
2023/10/17 10:42:56;;;;;;;4.90;4.50;;;;;;;;;;5114918;27;20216;-70
2023/10/17 10:45:29;;;;;;;4.37;4.00;;;;;;;-148.82;100.00;60434.72;5112964;27;20273;-69
2023/10/17 10:48:00;;;;;;;4.67;4.27;;;;;;;-148.82;100.00;60434.72;5111700;27;20230;-69
2023/10/17 10:50:30;;;;;;;4.27;4.03;;;;;;;-148.82;100.00;60434.72;5117951;27;20916;-69
2023/10/17 10:53:00;;;;;;;4.30;3.97;;;;;;;-148.82;100.00;60434.72;5112799;27;20301;-70
2023/10/17 10:55:30;;;;;;;6.03;5.47;;;;;;;-148.82;100.00;60434.72;5114869;27;20325;-70
2023/10/17 10:58:01;;;;;;;10.10;7.90;;;;;;;-148.82;100.00;60434.72;5112889;27;20842;-69
2023/10/17 11:00:28;;;;;;;5.17;4.63;;;;;;;-148.82;100.00;60434.72;5113854;27;20652;-70
2023/10/17 11:02:56;;;;;;;3.60;3.40;;;;;;;;;;5111098;27;20441;-69
2023/10/17 11:05:24;;;;;;;4.07;3.80;;;;;;;-148.82;100.00;60434.72;5113900;27;20219;-69
2023/10/17 11:08:00;;;;;;;4.30;3.90;;;;;;;;;;5114546;27;20200;-69
2023/10/17 11:10:29;;;;;;;4.67;4.27;;;;;;;-148.82;100.00;60434.72;5113486;27;20273;-70
2023/10/17 11:12:56;;;;;;;4.00;3.70;;;;;;;;;;5113955;27;20189;-69
2023/10/17 11:15:27;;;;;;;4.57;4.17;;;;;;;-148.82;100.00;60434.72;5111422;27;20265;-68
2023/10/17 11:18:06;;;;;;;3.87;3.63;;;;;;;-148.82;100.00;60434.72;5112901;27;20224;-69
2023/10/17 11:20:35;;;;;;;4.60;4.10;;;;;;;-148.82;100.00;60434.72;5114505;27;20289;-68
2023/10/17 11:23:07;;;;;;;4.17;3.77;;;;;;;-148.82;100.00;60434.72;5112325;27;20291;-69
2023/10/17 11:25:35;;;;;;;4.00;3.70;;;;;;;;;;5113815;27;20232;-69
2023/10/17 11:28:06;;;;;;;4.87;3.90;;;;;;;-148.82;100.00;60434.72;5110247;27;20221;-69
2023/10/17 11:30:40;;;;;;;3.93;3.63;;;;;;;-148.82;100.00;60434.72;5112643;27;20200;-69
2023/10/17 11:33:11;;;;;;;4.07;3.77;;;;;;;-148.82;100.00;60434.72;5112285;27;21492;-69
2023/10/17 11:35:46;;;;;;;4.30;4.00;;;;;;;-148.82;100.00;60434.72;5113866;27;20266;-69
2023/10/17 11:38:34;;;;;;;4.37;4.07;;;;;;;-148.82;100.00;60434.72;5114626;27;20255;-70
2023/10/17 11:41:15;;;;;;;4.03;3.73;;;;;;;-148.82;100.00;60434.72;5115948;27;20209;-69
2023/10/17 11:43:50;;;;;;;4.20;3.90;;;;;;;-148.82;100.00;60434.72;5112231;27;20239;-70
2023/10/17 11:46:28;;;;;;;4.77;4.37;;;;;;;-148.82;100.00;60434.72;5108302;27;20922;-68
2023/10/17 11:49:21;;;;;;;4.27;3.97;;;;;;;-148.82;100.00;60434.72;5115922;27;20726;-68
2023/10/17 11:51:51;;;;;;;3.87;3.57;;;;;;;;;;5115927;27;21102;-68
2023/10/17 11:54:22;;;;;;;3.60;3.37;;;;;;;-148.82;100.00;60434.72;5109552;27;21326;-66
2023/10/17 11:57:14;;;;;;;3.93;3.63;;;;;;;-148.82;100.00;60434.72;5114013;27;20254;-70
2023/10/17 11:59:57;;;;;;;4.50;4.10;;;;;;;-148.82;100.00;60434.72;5113346;27;20228;-68
2023/10/17 12:02:24;;;;;;;4.27;3.97;;;;;;;-148.82;100.00;60434.72;5110387;27;20241;-69
2023/10/17 12:04:52;;;;;;;4.03;3.73;;;;;;;-148.82;100.00;60434.72;5116697;27;20228;-69
2023/10/17 12:07:21;;;;;;;4.63;4.23;;;;;;;-148.82;100.00;60434.72;5113084;27;20205;-68
2023/10/17 12:09:53;;;;;;;4.87;4.47;;;;;;;;;;5112808;27;20201;-69
2023/10/17 12:12:22;;;;;;;4.30;3.90;;;;;;;-148.82;100.00;60434.72;5111632;27;20207;-68
2023/10/17 12:14:51;;;;;;;4.03;3.73;;;;;;;-148.82;100.00;60434.72;5113840;27;20231;-69
2023/10/17 12:17:19;;;;;;;4.33;3.93;;;;;;;-148.82;100.00;60434.72;5111582;27;20200;-69
2023/10/17 12:19:47;;;;;;;4.40;4.00;;;;;;;;;;5114817;27;20660;-68
2023/10/17 12:22:15;;;;;;;4.30;4.00;;;;;;;-148.82;100.00;60434.72;5112778;27;20205;-69
2023/10/17 12:24:45;;;;;;;4.27;3.97;;;;;;;-148.82;100.00;60434.72;5113478;27;20240;-69
2023/10/17 12:27:14;;;;;;;4.20;4.00;;;;;;;-148.82;100.00;60434.72;5110509;27;20638;-69
2023/10/17 12:29:44;;;;;;;4.73;4.27;;;;;;;-148.82;100.00;60434.72;5112070;27;20207;-69
2023/10/17 12:32:11;;;;;;;5.10;4.63;;;;;;;-148.82;100.00;60434.72;5113261;27;21378;-69
2023/10/17 12:34:39;;;;;;;5.80;5.30;;;;;;;-148.82;100.00;60434.72;5116320;27;20248;-68
2023/10/17 12:37:10;;;;;;;5.17;4.77;;;;;;;;;;5109975;27;20206;-68
2023/10/17 12:39:42;;;;;;;4.20;3.77;;;;;;;;;;5108257;27;20262;-69
2023/10/17 12:42:11;;;;;;;4.17;3.77;;;;;;;-148.82;100.00;60434.72;5114055;27;20272;-68
2023/10/17 12:44:40;;;;;;;4.27;3.97;;;;;;;-148.82;100.00;60434.72;5115106;27;20312;-68
2023/10/17 12:47:08;;;;;;;4.23;3.80;;;;;;;-148.82;100.00;60434.72;5116467;27;20242;-68
2023/10/17 12:49:37;;;;;;;5.77;4.10;;;;;;;-148.82;100.00;60434.72;5116297;27;20285;-68
2023/10/17 12:52:05;;;;;;;4.73;4.07;;;;;;;-148.82;100.00;60434.72;5115492;27;20859;-69
2023/10/17 12:54:33;;;;;;;4.03;3.80;;;;;;;-148.82;100.00;60434.72;5120096;27;20270;-69
2023/10/17 12:57:06;;;;;;;4.30;4.00;;;;;;;;;;5113647;27;20204;-69
2023/10/17 12:59:34;;;;;;;5.43;4.10;;;;;;;-148.82;100.00;60434.72;5115131;27;20233;-69
2023/10/17 13:02:03;;;;;;;4.30;3.90;;;;;;;-148.82;100.00;60434.72;5113528;27;20193;-68
2023/10/17 13:04:31;;;;;;;4.53;4.13;;;;;;;-148.82;100.00;60434.72;5115930;27;20292;-69
2023/10/17 13:07:00;;;;;;;4.87;4.33;;;;;;;-148.82;100.00;60434.72;5118835;27;20681;-70
2023/10/17 13:09:31;;;;;;;4.37;4.07;;;;;;;-148.82;100.00;60434.72;5116518;27;20204;-69
2023/10/17 13:11:59;;;;;;;4.43;4.10;;;;;;;-148.82;100.00;60434.72;5117930;27;20215;-69
2023/10/17 13:14:27;;;;;;;5.10;4.70;;;;;;;-148.82;100.00;60434.72;5112725;27;20285;-68
2023/10/17 13:16:55;;;;;;;3.97;3.53;;;;;;;;;;5116916;27;20241;-70
2023/10/17 13:19:24;;;;;;;4.50;4.20;;;;;;;-148.82;100.00;60434.72;5117976;27;20224;-69
2023/10/17 13:21:51;;;;;;;3.80;3.50;;;;;;;;;;5116027;27;20292;-69
2023/10/17 13:24:19;;;;;;;4.90;4.50;;;;;;;-148.82;100.00;60434.72;5115615;27;20219;-69
2023/10/17 13:26:47;;;;;;;4.50;4.20;;;;;;;-148.82;100.00;60434.72;5109693;27;20746;-70
2023/10/17 13:29:17;;;;;;;3.97;3.67;;;;;;;-148.82;100.00;60434.72;5110933;27;20655;-69